Time;durP1;ratioP1;P1;durP2;ratioP2;P2;SDS_P1;SDS_P2;PMS_P1;PMS_P2;Temp;Humidity;BMP_temperature;BMP_pressure;BME280_temperature;BME280_humidity;BME280_pressure;Samples;Min_cycle;Max_cycle;Signal;HPM_P1;HPM_P2
2022/11/28 00:01:58;;;;;;;2.67;1.23;;;7.20;99.90;;;;;;4990409;28;20809;-76
2022/11/28 00:04:24;;;;;;;3.42;2.03;;;7.20;99.90;;;;;;5008027;28;20034;-76
2022/11/28 00:06:50;;;;;;;5.22;2.13;;;7.20;99.90;;;;;;5012216;28;20033;-76
2022/11/28 00:09:18;;;;;;;5.13;1.70;;;7.20;99.90;;;;;;5004302;28;20049;-76
2022/11/28 00:11:45;;;;;;;3.58;1.48;;;7.20;99.90;;;;;;5019636;28;20049;-76
2022/11/28 00:14:11;;;;;;;5.68;2.17;;;7.20;99.90;;;;;;5004163;28;20496;-76
2022/11/28 00:16:37;;;;;;;4.68;1.85;;;7.20;99.90;;;;;;4998097;28;20073;-76
2022/11/28 00:19:04;;;;;;;4.50;1.80;;;7.20;99.90;;;;;;4982480;28;20050;-76
2022/11/28 00:21:30;;;;;;;3.33;1.80;;;7.20;99.90;;;;;;4995118;28;20038;-76
2022/11/28 00:23:57;;;;;;;3.45;1.63;;;7.20;99.90;;;;;;4993611;28;20046;-76
2022/11/28 00:26:38;;;;;;;2.83;1.48;;;7.20;99.90;;;;;;4999339;28;20045;-76
2022/11/28 00:29:05;;;;;;;3.25;2.00;;;7.20;99.90;;;;;;5000045;28;20042;-76
2022/11/28 00:31:34;;;;;;;5.55;1.63;;;7.20;99.90;;;;;;4986601;28;20495;-76
2022/11/28 00:34:03;;;;;;;3.05;1.65;;;7.20;99.90;;;;;;5000239;28;20064;-76
2022/11/28 00:36:29;;;;;;;5.90;2.42;;;7.20;99.90;;;;;;5000133;28;20069;-76
2022/11/28 00:38:55;;;;;;;3.20;1.60;;;7.30;99.90;;;;;;4994066;28;20041;-76
2022/11/28 00:41:28;;;;;;;3.47;1.48;;;7.20;99.90;;;;;;5004450;28;20033;-76
2022/11/28 00:43:54;;;;;;;3.97;1.52;;;7.20;99.90;;;;;;4993318;28;20030;-76
2022/11/28 00:46:21;;;;;;;3.83;1.60;;;7.20;99.90;;;;;;4998378;28;20038;-76
2022/11/28 00:48:47;;;;;;;3.55;1.65;;;7.20;99.90;;;;;;5001642;28;20519;-76
2022/11/28 00:51:22;;;;;;;3.63;2.45;;;7.20;99.90;;;;;;5002650;28;20372;-76
2022/11/28 00:53:49;;;;;;;2.30;1.25;;;7.30;99.90;;;;;;4987236;28;20045;-76
2022/11/28 00:56:18;;;;;;;3.97;1.48;;;7.30;99.90;;;;;;5017129;28;20033;-76
2022/11/28 00:58:44;;;;;;;2.95;1.70;;;7.30;99.90;;;;;;5021771;28;20964;-76
2022/11/28 01:01:11;;;;;;;4.47;2.00;;;7.30;99.90;;;;;;5008602;28;20119;-76
2022/11/28 01:03:37;;;;;;;3.35;1.60;;;7.30;99.90;;;;;;5009222;28;20526;-76
2022/11/28 01:06:03;;;;;;;2.83;1.40;;;7.30;99.90;;;;;;5007583;28;20049;-76
2022/11/28 01:08:28;;;;;;;4.20;1.52;;;7.30;99.90;;;;;;5010273;28;20048;-76
2022/11/28 01:10:54;;;;;;;2.88;1.55;;;7.30;99.90;;;;;;5014588;28;20037;-76
2022/11/28 01:13:19;;;;;;;3.72;2.15;;;7.40;99.90;;;;;;5007150;28;20049;-76
2022/11/28 01:15:45;;;;;;;3.83;1.67;;;7.30;99.90;;;;;;5006417;28;20132;-76
2022/11/28 01:18:11;;;;;;;4.25;2.30;;;7.30;99.90;;;;;;5007042;28;20029;-75
2022/11/28 01:20:36;;;;;;;4.15;2.25;;;7.30;99.90;;;;;;5002133;28;20471;-76
2022/11/28 01:23:02;;;;;;;3.90;1.95;;;7.30;99.90;;;;;;5005051;28;20061;-75
2022/11/28 01:25:28;;;;;;;3.00;1.80;;;7.40;99.90;;;;;;5002778;28;20057;-76
2022/11/28 01:27:54;;;;;;;4.00;1.92;;;7.30;99.90;;;;;;5002286;28;20042;-76
2022/11/28 01:30:19;;;;;;;3.08;1.85;;;7.30;99.90;;;;;;5020435;28;20040;-76
2022/11/28 01:32:45;;;;;;;4.10;2.13;;;7.40;99.90;;;;;;5002887;28;20101;-76
2022/11/28 01:35:10;;;;;;;3.55;2.00;;;7.40;99.90;;;;;;5002915;28;20045;-76
2022/11/28 01:37:36;;;;;;;4.63;1.77;;;7.40;99.90;;;;;;5004841;28;20611;-76
2022/11/28 01:40:02;;;;;;;4.50;1.98;;;7.40;99.90;;;;;;5003543;28;20045;-76
2022/11/28 01:42:28;;;;;;;4.50;1.92;;;7.40;99.90;;;;;;5004244;28;20060;-76
2022/11/28 01:44:53;;;;;;;3.97;1.60;;;7.40;99.90;;;;;;5007091;28;20042;-76
2022/11/28 01:47:24;;;;;;;2.97;1.77;;;7.40;99.90;;;;;;5006609;28;20048;-76
2022/11/28 01:49:50;;;;;;;4.60;2.20;;;7.40;99.90;;;;;;4993180;28;20050;-76
2022/11/28 01:52:18;;;;;;;3.53;2.10;;;7.40;99.90;;;;;;5008954;28;20064;-76
2022/11/28 01:54:47;;;;;;;3.45;1.98;;;7.40;99.90;;;;;;5009586;28;20045;-76
2022/11/28 01:57:21;;;;;;;3.85;1.85;;;7.40;99.90;;;;;;5002601;28;20399;-76
2022/11/28 01:59:57;;;;;;;3.10;1.48;;;7.40;99.90;;;;;;5004799;28;20116;-76
2022/11/28 02:02:32;;;;;;;4.20;1.92;;;7.40;99.90;;;;;;4993452;28;20038;-76
2022/11/28 02:04:58;;;;;;;4.72;2.67;;;7.40;99.90;;;;;;5003927;28;20116;-76
2022/11/28 02:07:24;;;;;;;4.82;2.60;;;7.40;99.90;;;;;;4989418;28;20116;-76
2022/11/28 02:09:49;;;;;;;5.53;2.42;;;7.40;99.90;;;;;;4990180;28;20070;-76
2022/11/28 02:12:42;;;;;;;7.15;2.22;;;7.40;99.90;;;;;;5005483;28;20038;-76
2022/11/28 02:15:24;;;;;;;3.85;1.88;;;7.40;99.90;;;;;;5006794;28;20041;-76
2022/11/28 02:18:18;;;;;;;4.28;2.13;;;7.40;99.90;;;;;;4986232;28;20054;-76
2022/11/28 02:21:17;;;;;;;5.40;2.63;;;7.50;99.90;;;;;;5001881;28;20077;-76
2022/11/28 02:24:24;;;;;;;5.70;2.25;;;7.50;99.90;;;;;;5005150;28;20050;-76
2022/11/28 02:27:19;;;;;;;4.70;2.38;;;7.50;99.90;;;;;;5004169;28;20045;-76
2022/11/28 02:30:01;;;;;;;5.13;1.83;;;7.40;99.90;;;;;;4994577;28;20054;-76
2022/11/28 02:33:09;;;;;;;5.70;2.47;;;7.40;99.90;;;;;;4988748;28;20041;-76
2022/11/28 02:35:59;;;;;;;3.63;2.08;;;7.50;99.90;;;;;;4944475;28;20031;-76
2022/11/28 02:38:49;;;;;;;5.60;2.47;;;7.50;99.90;;;;;;4960989;28;20118;-76
2022/11/28 02:41:30;;;;;;;2.92;1.75;;;7.50;99.90;;;;;;4979371;28;20046;-76
2022/11/28 02:44:10;;;;;;;3.08;1.80;;;7.50;99.90;;;;;;5017945;28;20455;-76
2022/11/28 02:46:58;;;;;;;3.60;1.92;;;7.50;99.90;;;;;;5003250;28;20529;-76
2022/11/28 02:49:45;;;;;;;2.17;1.45;;;7.50;99.90;;;;;;5008620;28;20530;-76
2022/11/28 02:52:19;;;;;;;4.45;2.03;;;7.50;99.90;;;;;;4992396;28;20049;-76
2022/11/28 02:54:47;;;;;;;3.72;1.98;;;7.50;99.90;;;;;;5007626;28;20053;-76
2022/11/28 02:57:13;;;;;;;3.80;2.20;;;7.50;99.90;;;;;;5009056;28;20041;-76
2022/11/28 02:59:41;;;;;;;4.65;2.30;;;7.50;99.90;;;;;;5009068;28;20092;-76
2022/11/28 03:02:17;;;;;;;5.53;2.28;;;7.50;99.90;;;;;;5008876;28;20052;-76
2022/11/28 03:05:18;;;;;;;4.68;2.20;;;7.50;99.90;;;;;;5007524;28;20046;-76
2022/11/28 03:07:56;;;;;;;4.00;2.40;;;7.50;99.90;;;;;;4992675;28;20038;-76
2022/11/28 03:10:43;;;;;;;5.38;2.65;;;7.50;99.90;;;;;;4993971;28;20056;-76
2022/11/28 03:13:20;;;;;;;4.80;2.80;;;7.50;99.90;;;;;;5008662;28;20071;-76
2022/11/28 03:16:05;;;;;;;3.65;2.10;;;7.50;99.90;;;;;;5007409;28;20076;-76
2022/11/28 03:19:10;;;;;;;3.97;2.28;;;7.50;99.90;;;;;;5004537;28;20121;-76
2022/11/28 03:21:46;;;;;;;4.32;2.35;;;7.50;99.90;;;;;;4982532;28;20507;-76
2022/11/28 03:24:32;;;;;;;3.70;1.70;;;7.60;99.90;;;;;;4985615;28;20132;-76
2022/11/28 03:27:17;;;;;;;;;;;7.60;99.90;;;;;;5003697;28;20507;-76
2022/11/28 03:29:47;;;;;;;3.22;1.83;;;7.60;99.90;;;;;;4986159;28;20453;-76
2022/11/28 03:32:20;;;;;;;5.53;2.55;;;7.60;99.90;;;;;;4988223;28;20041;-76
2022/11/28 03:34:52;;;;;;;3.88;2.63;;;7.60;99.90;;;;;;4987502;28;20499;-76
2022/11/28 03:37:29;;;;;;;5.53;2.47;;;7.60;99.90;;;;;;5001782;28;20038;-76
2022/11/28 03:40:01;;;;;;;4.60;2.38;;;7.60;99.90;;;;;;5002963;28;20072;-76
2022/11/28 03:42:31;;;;;;;4.30;2.38;;;7.60;99.90;;;;;;5004343;28;20038;-76
2022/11/28 03:45:09;;;;;;;5.25;2.60;;;7.60;99.90;;;;;;5005005;28;20069;-76
2022/11/28 03:47:40;;;;;;;7.47;2.63;;;7.60;99.90;;;;;;5003059;28;20064;-76
2022/11/28 03:50:13;;;;;;;5.95;2.17;;;7.70;99.90;;;;;;5004541;28;20044;-76
2022/11/28 03:52:53;;;;;;;4.32;2.75;;;7.70;99.90;;;;;;5002271;28;20064;-76
2022/11/28 03:55:26;;;;;;;5.78;2.95;;;7.70;99.90;;;;;;5003730;28;20037;-76
2022/11/28 03:58:21;;;;;;;4.10;2.63;;;7.70;99.90;;;;;;5001723;28;20049;-76
2022/11/28 04:01:16;;;;;;;5.22;2.83;;;7.70;99.90;;;;;;4996382;28;20092;-76
2022/11/28 04:04:06;;;;;;;6.15;3.17;;;7.70;99.90;;;;;;5017299;28;20609;-76
2022/11/28 04:06:56;;;;;;;6.63;2.92;;;7.70;99.90;;;;;;5002946;28;20053;-76
2022/11/28 04:09:48;;;;;;;6.63;3.50;;;7.80;99.90;;;;;;5008591;28;20042;-76
2022/11/28 04:12:31;;;;;;;8.40;2.78;;;7.80;99.90;;;;;;5004563;28;20037;-76
2022/11/28 04:15:08;;;;;;;4.53;2.75;;;7.80;99.90;;;;;;5000118;28;20049;-76
2022/11/28 04:17:54;;;;;;;5.97;2.88;;;7.80;99.90;;;;;;4981673;28;20034;-76
2022/11/28 04:20:37;;;;;;;5.07;2.90;;;7.80;99.90;;;;;;4987912;28;20042;-76
2022/11/28 04:23:09;;;;;;;7.05;3.95;;;7.80;99.90;;;;;;5000468;28;20125;-76
2022/11/28 04:25:38;;;;;;;4.63;2.83;;;7.90;99.90;;;;;;5003175;28;20041;-76
2022/11/28 04:28:16;;;;;;;8.65;3.85;;;7.80;99.90;;;;;;4998855;28;20543;-76
2022/11/28 04:30:45;;;;;;;7.32;3.50;;;7.80;99.90;;;;;;5003123;28;20945;-76
2022/11/28 04:33:13;;;;;;;6.15;3.42;;;7.90;99.90;;;;;;4983325;28;20046;-76
2022/11/28 04:35:43;;;;;;;6.70;3.42;;;7.90;99.90;;;;;;5019681;28;20052;-76
2022/11/28 04:38:10;;;;;;;4.80;2.88;;;7.90;99.90;;;;;;5002076;28;20038;-76
2022/11/28 04:41:05;;;;;;;6.13;3.75;;;7.90;99.90;;;;;;5002452;28;20149;-76
2022/11/28 04:43:43;;;;;;;6.35;3.10;;;7.90;99.90;;;;;;5002641;28;20057;-76
2022/11/28 04:46:13;;;;;;;7.20;4.15;;;7.90;99.90;;;;;;5023575;28;20092;-76
2022/11/28 04:48:40;;;;;;;5.72;2.85;;;7.90;99.90;;;;;;5002831;28;20050;-76
2022/11/28 04:51:41;;;;;;;6.13;2.83;;;7.90;99.90;;;;;;5005338;28;20127;-75
2022/11/28 04:54:30;;;;;;;7.40;3.17;;;7.90;99.90;;;;;;5002180;28;20598;-76
2022/11/28 04:57:18;;;;;;;6.88;4.25;;;7.90;99.90;;;;;;5008039;28;20049;-76
2022/11/28 04:59:45;;;;;;;5.85;4.18;;;8.00;99.90;;;;;;4988714;28;20042;-76
2022/11/28 05:02:13;;;;;;;8.23;4.85;;;8.00;99.90;;;;;;4977882;28;20611;-76
2022/11/28 05:04:39;;;;;;;7.43;4.32;;;8.00;99.90;;;;;;5000732;28;20468;-76
2022/11/28 05:07:07;;;;;;;6.80;4.40;;;7.90;99.90;;;;;;4989002;28;20062;-76
2022/11/28 05:09:33;;;;;;;8.30;4.28;;;8.00;99.90;;;;;;4994319;28;20511;-76
2022/11/28 05:11:59;;;;;;;9.48;4.65;;;8.00;99.90;;;;;;4999036;28;20038;-76
2022/11/28 05:14:24;;;;;;;6.68;4.05;;;8.00;99.90;;;;;;5007609;28;20128;-76
2022/11/28 05:16:50;;;;;;;6.85;4.07;;;8.00;99.90;;;;;;5008200;28;20444;-76
2022/11/28 05:19:15;;;;;;;8.00;4.07;;;8.00;99.90;;;;;;4990088;28;20415;-76
2022/11/28 05:21:41;;;;;;;7.05;3.78;;;8.00;99.90;;;;;;5005922;28;20525;-76
2022/11/28 05:24:08;;;;;;;6.07;4.05;;;8.00;99.90;;;;;;4989092;28;20045;-76
2022/11/28 05:26:34;;;;;;;7.43;3.70;;;8.00;99.90;;;;;;5011263;28;20052;-76
2022/11/28 05:29:01;;;;;;;6.35;3.90;;;8.00;99.90;;;;;;5009957;28;20125;-76
2022/11/28 05:31:27;;;;;;;6.35;3.50;;;8.00;99.90;;;;;;5011598;28;20034;-76
2022/11/28 05:33:54;;;;;;;7.75;3.72;;;8.00;99.90;;;;;;5006742;28;20082;-76
2022/11/28 05:36:20;;;;;;;6.32;3.58;;;8.00;99.90;;;;;;4992326;28;20498;-76
2022/11/28 05:38:46;;;;;;;5.88;3.83;;;8.00;99.90;;;;;;5009341;28;20048;-76
2022/11/28 05:41:25;;;;;;;6.78;3.42;;;8.00;99.90;;;;;;5009375;28;20033;-76
2022/11/28 05:43:51;;;;;;;6.82;4.32;;;8.00;99.90;;;;;;5008158;28;20415;-76
2022/11/28 05:46:17;;;;;;;5.50;3.05;;;8.00;99.90;;;;;;5009413;28;20060;-76
2022/11/28 05:48:43;;;;;;;7.63;3.47;;;8.00;99.90;;;;;;4994966;28;20515;-76
2022/11/28 05:51:08;;;;;;;6.78;3.47;;;8.00;99.90;;;;;;5008569;28;20056;-76
2022/11/28 05:53:35;;;;;;;6.47;3.85;;;8.00;99.90;;;;;;5002763;28;20038;-76
2022/11/28 05:56:14;;;;;;;6.38;3.55;;;8.10;99.90;;;;;;5004538;28;20038;-76
2022/11/28 05:58:41;;;;;;;6.47;3.85;;;8.10;99.90;;;;;;5004148;28;20406;-76
2022/11/28 06:01:19;;;;;;;10.07;4.90;;;8.10;99.90;;;;;;4994338;28;20034;-76
2022/11/28 06:03:45;;;;;;;6.35;3.95;;;8.00;99.90;;;;;;5008498;28;20054;-76
2022/11/28 06:06:17;;;;;;;6.88;3.60;;;8.10;99.90;;;;;;5009408;28;20077;-76
2022/11/28 06:08:47;;;;;;;7.87;4.27;;;8.10;99.90;;;;;;5008776;28;20044;-76
2022/11/28 06:11:14;;;;;;;7.75;4.05;;;8.10;99.90;;;;;;5006723;28;20553;-76
2022/11/28 06:13:41;;;;;;;6.80;3.95;;;8.10;99.90;;;;;;4993624;28;20038;-76
2022/11/28 06:16:11;;;;;;;6.38;4.18;;;8.10;99.90;;;;;;4991130;28;20049;-76
2022/11/28 06:18:38;;;;;;;7.28;4.25;;;8.10;99.90;;;;;;5025443;28;20042;-76
2022/11/28 06:21:04;;;;;;;7.15;3.83;;;8.10;99.90;;;;;;4996631;28;20041;-76
2022/11/28 06:23:31;;;;;;;5.85;3.67;;;8.10;99.90;;;;;;4990565;28;20034;-76
2022/11/28 06:25:57;;;;;;;7.82;3.95;;;8.10;99.90;;;;;;4991556;28;20041;-76
2022/11/28 06:28:23;;;;;;;7.72;3.47;;;8.10;99.90;;;;;;5006415;28;20462;-76
2022/11/28 06:30:49;;;;;;;8.02;4.35;;;8.10;99.90;;;;;;5008683;28;20042;-76
2022/11/28 06:33:14;;;;;;;8.18;3.63;;;8.10;99.90;;;;;;4998691;28;20045;-76
2022/11/28 06:35:40;;;;;;;7.70;3.08;;;8.10;99.90;;;;;;5005218;28;20052;-76
2022/11/28 06:38:05;;;;;;;9.07;4.03;;;8.10;99.90;;;;;;5009234;28;20121;-77
2022/11/28 06:40:31;;;;;;;6.45;3.83;;;8.20;99.90;;;;;;5007275;28;20080;-76
2022/11/28 06:42:57;;;;;;;7.03;4.07;;;8.10;99.90;;;;;;5010164;28;20056;-76
2022/11/28 06:45:22;;;;;;;8.57;4.38;;;8.10;99.90;;;;;;5008192;28;20042;-76
2022/11/28 06:47:48;;;;;;;4.63;3.22;;;8.10;99.90;;;;;;5008453;28;20041;-76
2022/11/28 06:50:13;;;;;;;6.00;3.67;;;8.10;99.90;;;;;;4991884;28;20069;-76
2022/11/28 06:52:39;;;;;;;8.35;4.20;;;8.10;99.90;;;;;;5008235;28;20197;-76
2022/11/28 06:55:05;;;;;;;6.65;3.55;;;8.10;99.90;;;;;;5003284;28;20242;-76
2022/11/28 06:57:31;;;;;;;6.18;3.75;;;8.20;99.90;;;;;;5009363;28;20079;-76
2022/11/28 06:59:57;;;;;;;7.55;4.28;;;8.10;99.90;;;;;;5007646;28;20391;-76
2022/11/28 07:02:23;;;;;;;7.10;4.18;;;8.10;99.90;;;;;;5005098;28;20145;-76
2022/11/28 07:04:50;;;;;;;5.85;4.07;;;8.20;99.90;;;;;;4988191;28;20050;-76
2022/11/28 07:07:15;;;;;;;4.25;2.90;;;8.20;99.90;;;;;;5004259;28;20041;-76
2022/11/28 07:09:41;;;;;;;9.20;4.50;;;8.20;99.90;;;;;;5008179;28;20041;-76
2022/11/28 07:12:06;;;;;;;6.00;3.53;;;8.20;99.90;;;;;;5006852;28;21020;-76
2022/11/28 07:14:33;;;;;;;6.65;3.42;;;8.10;99.90;;;;;;5007482;28;20711;-76
2022/11/28 07:16:59;;;;;;;7.63;3.75;;;8.20;99.90;;;;;;5006955;28;20034;-76
2022/11/28 07:19:25;;;;;;;6.35;3.40;;;8.20;99.90;;;;;;5008086;28;20108;-76
2022/11/28 07:21:50;;;;;;;4.55;2.90;;;8.20;99.90;;;;;;4992940;28;20060;-76
2022/11/28 07:24:17;;;;;;;4.95;3.20;;;8.20;99.90;;;;;;5003453;28;20041;-76
2022/11/28 07:26:44;;;;;;;5.75;3.05;;;8.20;99.90;;;;;;5006256;28;20459;-76
2022/11/28 07:29:14;;;;;;;5.70;3.00;;;8.20;99.90;;;;;;5004878;28;20042;-76
2022/11/28 07:31:40;;;;;;;6.70;2.58;;;8.20;99.90;;;;;;5007040;28;20099;-76
2022/11/28 07:34:06;;;;;;;4.32;2.78;;;8.20;99.90;;;;;;5006527;28;20046;-76
2022/11/28 07:36:31;;;;;;;4.00;2.45;;;8.20;99.90;;;;;;4990437;28;20045;-76
2022/11/28 07:38:59;;;;;;;4.97;2.63;;;8.20;99.90;;;;;;5003786;28;20030;-77
2022/11/28 07:41:26;;;;;;;4.20;2.60;;;8.20;99.90;;;;;;5007309;28;20174;-76
2022/11/28 07:43:57;;;;;;;7.75;3.38;;;8.20;99.90;;;;;;5006467;28;20116;-76
2022/11/28 07:46:24;;;;;;;4.75;2.38;;;8.20;99.90;;;;;;5002985;28;20034;-76
2022/11/28 07:48:50;;;;;;;5.05;2.53;;;8.20;99.90;;;;;;5006993;28;20523;-79
2022/11/28 07:51:22;;;;;;;5.32;2.88;;;8.20;99.90;;;;;;5007223;28;20112;-76
2022/11/28 07:53:47;;;;;;;7.65;3.20;;;8.20;99.90;;;;;;4986266;28;21892;-76
2022/11/28 07:56:16;;;;;;;4.80;2.55;;;8.20;99.90;;;;;;5004026;28;20484;-76
2022/11/28 07:58:43;;;;;;;4.57;2.53;;;8.20;99.90;;;;;;5007590;28;20495;-76
2022/11/28 08:01:10;;;;;;;5.85;2.65;;;8.20;99.90;;;;;;5000577;28;20056;-76
2022/11/28 08:03:36;;;;;;;5.35;2.47;;;8.20;99.90;;;;;;5001316;28;20065;-76
2022/11/28 08:06:03;;;;;;;3.70;2.53;;;8.20;99.90;;;;;;5001878;28;20515;-76
2022/11/28 08:08:28;;;;;;;7.72;3.80;;;8.20;99.90;;;;;;4993586;28;20045;-76
2022/11/28 08:10:59;;;;;;;5.05;2.28;;;8.20;99.90;;;;;;4982922;28;20046;-76
2022/11/28 08:13:25;;;;;;;4.38;2.75;;;8.30;99.90;;;;;;5002371;28;20053;-76
2022/11/28 08:15:51;;;;;;;3.45;2.22;;;8.20;99.90;;;;;;5000411;28;20038;-76
2022/11/28 08:18:16;;;;;;;4.07;2.20;;;8.20;99.90;;;;;;4994233;28;20477;-76
2022/11/28 08:20:42;;;;;;;3.92;2.53;;;8.30;99.90;;;;;;4979953;28;20057;-76
2022/11/28 08:23:07;;;;;;;4.35;2.20;;;8.30;99.90;;;;;;4996195;28;20392;-77
2022/11/28 08:25:33;;;;;;;4.10;2.20;;;8.30;99.90;;;;;;4994755;28;20045;-76
2022/11/28 08:27:59;;;;;;;4.90;2.72;;;8.30;99.90;;;;;;4995231;28;20049;-76
2022/11/28 08:30:24;;;;;;;6.82;3.58;;;8.30;99.90;;;;;;4982646;28;20480;-76
2022/11/28 08:32:50;;;;;;;3.85;1.95;;;8.30;99.90;;;;;;4985123;28;20542;-76
2022/11/28 08:35:16;;;;;;;5.45;2.25;;;8.30;99.90;;;;;;4993819;28;21427;-76
2022/11/28 08:37:41;;;;;;;3.35;2.30;;;8.30;99.90;;;;;;5013751;28;20045;-76
2022/11/28 08:40:07;;;;;;;3.72;2.38;;;8.30;99.90;;;;;;4991096;28;20038;-76
2022/11/28 08:42:33;;;;;;;4.28;2.30;;;8.30;99.90;;;;;;4992755;28;20034;-77
2022/11/28 08:44:59;;;;;;;4.78;1.95;;;8.30;99.90;;;;;;4993333;28;20041;-76
2022/11/28 08:47:25;;;;;;;2.45;1.60;;;8.30;99.90;;;;;;4996543;28;20049;-76
2022/11/28 08:49:50;;;;;;;4.88;2.10;;;8.30;99.90;;;;;;4995014;28;20540;-76
2022/11/28 08:52:16;;;;;;;4.30;1.85;;;8.30;99.90;;;;;;5001950;28;20042;-73
2022/11/28 08:54:42;;;;;;;2.95;1.65;;;8.30;99.90;;;;;;4999048;28;20046;-75
2022/11/28 08:57:08;;;;;;;4.25;2.13;;;8.30;99.90;;;;;;5000996;28;20041;-76
2022/11/28 08:59:33;;;;;;;2.95;1.52;;;8.30;99.90;;;;;;5001749;28;20034;-76
2022/11/28 09:01:59;;;;;;;4.07;2.53;;;8.30;99.90;;;;;;4984427;28;20422;-76
2022/11/28 09:04:24;;;;;;;5.38;2.42;;;8.30;99.90;;;;;;4993071;28;20241;-76
2022/11/28 09:06:51;;;;;;;3.38;1.75;;;8.40;99.90;;;;;;4975663;28;20038;-76
2022/11/28 09:09:17;;;;;;;3.97;2.50;;;8.40;99.90;;;;;;4987612;28;20042;-76
2022/11/28 09:11:43;;;;;;;3.30;2.10;;;8.30;99.90;;;;;;4998543;28;20034;-76
2022/11/28 09:14:09;;;;;;;3.72;1.90;;;8.40;99.90;;;;;;4988977;28;20085;-76
2022/11/28 09:16:36;;;;;;;4.88;2.35;;;8.40;99.90;;;;;;4981645;28;20128;-76
2022/11/28 09:19:02;;;;;;;4.70;2.40;;;8.40;99.90;;;;;;4994416;28;20057;-76
2022/11/28 09:21:27;;;;;;;4.00;1.90;;;8.40;99.90;;;;;;4999922;28;20415;-76
2022/11/28 09:23:55;;;;;;;4.10;2.13;;;8.40;99.90;;;;;;5000876;28;20061;-76
2022/11/28 09:26:23;;;;;;;3.60;1.73;;;8.40;99.90;;;;;;4992954;28;20046;-76
2022/11/28 09:28:49;;;;;;;3.72;2.05;;;8.40;99.90;;;;;;5003518;28;20057;-76
2022/11/28 09:31:16;;;;;;;3.20;1.80;;;8.50;99.90;;;;;;5000845;28;20038;-76
2022/11/28 09:33:43;;;;;;;2.90;1.70;;;8.50;99.90;;;;;;4986571;28;20045;-76
2022/11/28 09:36:13;;;;;;;3.33;1.58;;;8.50;99.90;;;;;;5006894;28;20038;-76
2022/11/28 09:38:39;;;;;;;3.92;2.00;;;8.40;99.90;;;;;;4994101;28;20594;-76
2022/11/28 09:41:32;;;;;;;2.75;1.30;;;8.50;99.90;;;;;;5017569;28;20130;-76
2022/11/28 09:44:05;;;;;;;2.97;1.80;;;8.50;99.90;;;;;;4981818;28;20092;-76
2022/11/28 09:46:34;;;;;;;2.88;1.80;;;8.50;99.90;;;;;;5019053;28;20467;-76
2022/11/28 09:49:03;;;;;;;3.30;1.52;;;8.50;99.90;;;;;;4983737;28;20111;-76
2022/11/28 09:51:57;;;;;;;2.33;1.70;;;8.50;99.90;;;;;;5002022;28;20069;-76
2022/11/28 09:54:37;;;;;;;3.97;1.90;;;8.50;99.90;;;;;;4998865;28;20052;-76
2022/11/28 09:57:10;;;;;;;3.78;1.88;;;8.50;99.90;;;;;;4978875;28;20071;-76
2022/11/28 09:59:35;;;;;;;2.85;1.67;;;8.50;99.90;;;;;;5002732;28;20096;-76
2022/11/28 10:02:04;;;;;;;3.33;1.67;;;8.50;99.90;;;;;;4999808;28;20029;-76
2022/11/28 10:04:40;;;;;;;3.10;1.70;;;8.50;99.90;;;;;;4987327;28;20046;-76
2022/11/28 10:07:21;;;;;;;3.95;2.15;;;8.50;99.90;;;;;;4984824;28;20557;-76
2022/11/28 10:10:30;;;;;;;2.97;1.60;;;8.50;99.90;;;;;;4994298;28;20038;-75
2022/11/28 10:13:12;;;;;;;2.97;1.55;;;8.50;99.90;;;;;;5015351;28;20743;-76
2022/11/28 10:15:44;;;;;;;3.28;1.60;;;8.50;99.90;;;;;;5001470;28;20038;-76
2022/11/28 10:18:33;;;;;;;2.97;1.60;;;8.50;99.90;;;;;;5000383;28;20061;-76
2022/11/28 10:21:14;;;;;;;3.15;2.30;;;8.60;99.90;;;;;;5002849;28;20807;-76
2022/11/28 10:23:45;;;;;;;3.92;1.73;;;8.60;99.90;;;;;;5001690;28;20088;-76
2022/11/28 10:26:25;;;;;;;3.50;2.15;;;8.60;99.90;;;;;;4979091;28;20042;-76
2022/11/28 10:28:54;;;;;;;3.97;1.77;;;8.60;99.90;;;;;;4998463;28;20128;-77
2022/11/28 10:31:27;;;;;;;4.05;2.13;;;8.60;99.90;;;;;;4987235;28;20048;-78
2022/11/28 10:34:39;;;;;;;3.13;1.77;;;8.70;99.90;;;;;;5000985;28;20523;-78
2022/11/28 10:37:12;;;;;;;3.17;2.35;;;8.60;99.90;;;;;;4984072;28;22103;-78
2022/11/28 10:39:42;;;;;;;3.78;1.85;;;8.60;99.90;;;;;;4997346;28;20050;-78
2022/11/28 10:42:29;;;;;;;3.00;1.60;;;8.60;99.90;;;;;;4977613;28;20099;-78
2022/11/28 10:45:30;;;;;;;3.90;2.15;;;8.60;99.90;;;;;;5000087;28;20407;-78
2022/11/28 10:48:06;;;;;;;3.35;1.92;;;8.70;99.90;;;;;;5001570;28;20037;-78
2022/11/28 10:50:52;;;;;;;3.17;1.73;;;8.70;99.90;;;;;;4997116;28;20044;-78
2022/11/28 10:53:39;;;;;;;2.35;1.42;;;8.70;99.90;;;;;;4998377;28;20041;-77
2022/11/28 10:56:10;;;;;;;4.78;2.50;;;8.70;99.90;;;;;;4996268;28;20042;-78
2022/11/28 10:58:51;;;;;;;5.18;2.08;;;8.70;99.90;;;;;;4997175;28;20044;-77
2022/11/28 11:01:17;;;;;;;2.58;1.42;;;8.80;99.90;;;;;;4998382;28;20033;-78
2022/11/28 11:03:42;;;;;;;3.33;1.42;;;8.80;99.90;;;;;;5010859;28;20045;-77
2022/11/28 11:06:08;;;;;;;3.40;1.90;;;8.70;99.90;;;;;;4985972;28;20066;-78
2022/11/28 11:08:36;;;;;;;3.92;1.60;;;8.80;99.90;;;;;;4994177;28;20567;-78
2022/11/28 11:11:05;;;;;;;3.42;1.85;;;8.80;99.90;;;;;;4999440;28;20037;-77
2022/11/28 11:13:33;;;;;;;4.78;2.08;;;8.80;99.90;;;;;;4992473;28;20488;-78
2022/11/28 11:16:01;;;;;;;5.45;2.08;;;8.80;99.90;;;;;;4996080;28;20504;-78
2022/11/28 11:18:30;;;;;;;3.38;1.73;;;8.80;99.90;;;;;;4994533;28;20077;-77
2022/11/28 11:21:15;;;;;;;5.57;2.47;;;8.80;99.90;;;;;;4973313;28;20061;-78
2022/11/28 11:23:42;;;;;;;2.83;1.75;;;8.90;99.90;;;;;;4996130;28;20045;-77
2022/11/28 11:26:18;;;;;;;2.65;1.50;;;8.80;99.90;;;;;;4982586;28;20348;-78
2022/11/28 11:28:51;;;;;;;4.25;2.08;;;8.90;99.90;;;;;;4982536;28;20088;-78
2022/11/28 11:31:39;;;;;;;2.83;1.63;;;8.90;99.90;;;;;;4999354;28;21061;-78
2022/11/28 11:34:13;;;;;;;3.92;1.95;;;8.90;99.90;;;;;;4992913;28;20042;-78
2022/11/28 11:36:38;;;;;;;3.17;1.75;;;8.90;99.90;;;;;;5016848;28;20118;-78
2022/11/28 11:39:19;;;;;;;4.63;2.38;;;8.90;99.90;;;;;;4995202;28;20072;-78
2022/11/28 11:41:47;;;;;;;4.82;2.13;;;8.90;99.90;;;;;;5019649;28;20037;-78
2022/11/28 11:44:13;;;;;;;3.47;1.98;;;8.90;99.90;;;;;;4996130;28;20060;-76
2022/11/28 11:47:00;;;;;;;4.03;1.85;;;8.90;99.90;;;;;;4995441;28;20045;-77
2022/11/28 11:49:35;;;;;;;4.43;2.70;;;8.90;99.90;;;;;;4998037;28;20432;-78
2022/11/28 11:52:24;;;;;;;3.47;2.38;;;8.90;99.90;;;;;;4998425;28;20084;-78
2022/11/28 11:54:56;;;;;;;4.75;2.75;;;8.90;99.90;;;;;;4992215;28;20514;-77
2022/11/28 11:57:29;;;;;;;4.20;2.25;;;8.90;99.90;;;;;;4985206;28;20044;-78
2022/11/28 12:00:00;;;;;;;10.10;4.00;;;8.90;99.90;;;;;;4980703;28;20234;-77
2022/11/28 12:02:40;;;;;;;7.32;4.15;;;8.90;99.90;;;;;;4981798;28;20069;-78
2022/11/28 12:05:16;;;;;;;5.25;3.25;;;9.00;99.90;;;;;;4974881;28;20042;-77
2022/11/28 12:08:02;;;;;;;5.15;2.40;;;9.00;99.90;;;;;;4996929;28;20096;-77
2022/11/28 12:10:33;;;;;;;3.72;1.85;;;8.90;99.90;;;;;;4998258;28;20046;-77
2022/11/28 12:13:02;;;;;;;3.72;1.90;;;8.90;99.90;;;;;;4998489;28;20103;-77
2022/11/28 12:15:31;;;;;;;5.28;2.35;;;9.00;99.90;;;;;;5000935;28;20068;-77
2022/11/28 12:18:16;;;;;;;2.83;1.75;;;9.00;99.90;;;;;;4992801;28;20074;-77
2022/11/28 12:21:00;;;;;;;4.97;3.22;;;9.00;99.90;;;;;;4978450;28;20405;-77
2022/11/28 12:23:44;;;;;;;4.80;2.60;;;8.90;99.90;;;;;;4977794;28;20625;-77
2022/11/28 12:26:27;;;;;;;4.30;2.00;;;8.90;99.90;;;;;;5000869;28;20042;-77
2022/11/28 12:29:29;;;;;;;4.32;2.70;;;8.90;99.90;;;;;;4995311;28;20522;-77
2022/11/28 12:32:23;;;;;;;5.45;3.38;;;9.00;99.90;;;;;;4999290;28;20042;-77
2022/11/28 12:35:16;;;;;;;3.17;1.75;;;8.90;99.90;;;;;;4999447;28;20057;-78
2022/11/28 12:37:53;;;;;;;4.80;1.90;;;9.00;99.90;;;;;;4982950;28;20403;-77
2022/11/28 12:40:36;;;;;;;4.53;2.05;;;9.00;99.90;;;;;;4978952;28;20381;-77
2022/11/28 12:43:29;;;;;;;4.30;2.17;;;9.00;99.90;;;;;;4995933;28;20034;-77
2022/11/28 12:46:08;;;;;;;3.55;1.73;;;9.00;99.90;;;;;;5012252;28;20083;-78
2022/11/28 12:48:45;;;;;;;3.55;1.50;;;9.00;99.90;;;;;;4982882;28;20522;-78
2022/11/28 12:51:40;;;;;;;2.55;1.58;;;9.00;99.90;;;;;;4985335;28;20597;-76
2022/11/28 12:54:23;;;;;;;2.88;1.70;;;9.10;99.90;;;;;;4993725;28;20054;-77
2022/11/28 12:57:02;;;;;;;4.85;3.97;;;9.00;99.90;;;;;;5007078;28;20042;-77
2022/11/28 12:59:44;;;;;;;3.42;2.08;;;9.00;99.90;;;;;;4997436;28;20040;-77
2022/11/28 13:02:34;;;;;;;4.60;2.13;;;9.10;99.90;;;;;;4979412;28;21829;-77
2022/11/28 13:05:04;;;;;;;5.05;2.72;;;9.10;99.90;;;;;;5004947;28;20535;-77
2022/11/28 13:07:53;;;;;;;3.60;1.88;;;9.10;99.90;;;;;;5005605;28;20514;-77
2022/11/28 13:10:38;;;;;;;5.28;2.30;;;9.10;99.90;;;;;;4997785;28;20438;-77
2022/11/28 13:13:11;;;;;;;4.57;2.10;;;9.10;99.90;;;;;;4986376;28;20073;-77
2022/11/28 13:15:49;;;;;;;3.47;1.45;;;9.10;99.90;;;;;;4995183;28;20339;-76
2022/11/28 13:18:27;;;;;;;5.15;2.08;;;9.10;99.90;;;;;;5019709;28;20048;-77
2022/11/28 13:21:05;;;;;;;4.38;2.08;;;9.10;99.90;;;;;;5001825;28;20049;-77
2022/11/28 13:23:52;;;;;;;4.75;2.40;;;9.10;99.90;;;;;;4998329;28;20046;-77
2022/11/28 13:26:44;;;;;;;3.22;1.70;;;9.10;99.90;;;;;;5000865;28;20503;-77
2022/11/28 13:29:33;;;;;;;3.88;1.85;;;9.10;99.90;;;;;;5018378;28;20513;-75